Time;durP1;ratioP1;P1;durP2;ratioP2;P2;SDS_P1;SDS_P2;PMS_P1;PMS_P2;Temp;Humidity;BMP_temperature;BMP_pressure;BME280_temperature;BME280_humidity;BME280_pressure;Samples;Min_cycle;Max_cycle;Signal;HPM_P1;HPM_P2
2022/03/03 00:00:28;;;;;;;17.00;9.50;;;-0.70;1.00;;;;;;5060106;28;20177;-74
2022/03/03 00:02:54;;;;;;;20.27;10.88;;;-0.70;1.00;;;;;;5056014;28;20295;-74
2022/03/03 00:05:28;;;;;;;25.97;10.50;;;-0.70;1.00;;;;;;5057949;28;20203;-74
2022/03/03 00:07:54;;;;;;;15.98;9.55;;;-0.80;1.00;;;;;;5071250;28;20269;-74
2022/03/03 00:10:19;;;;;;;24.00;9.47;;;-0.80;1.00;;;;;;5075202;28;20191;-73
2022/03/03 00:12:46;;;;;;;16.10;9.57;;;-0.80;1.00;;;;;;5058593;28;20712;-74
2022/03/03 00:15:12;;;;;;;21.13;10.10;;;-0.80;1.00;;;;;;5053905;28;20179;-74
2022/03/03 00:17:37;;;;;;;20.83;10.90;;;-0.80;1.00;;;;;;5054884;28;20179;-74
2022/03/03 00:20:04;;;;;;;16.90;9.60;;;-0.80;1.00;;;;;;5054869;28;20689;-74
2022/03/03 00:22:40;;;;;;;19.90;10.65;;;-0.80;1.00;;;;;;5063488;28;20187;-74
2022/03/03 00:25:06;;;;;;;16.15;9.30;;;-0.80;1.00;;;;;;5062528;28;20521;-74
2022/03/03 00:27:46;;;;;;;14.40;8.90;;;-0.90;1.00;;;;;;5062448;28;20285;-74
2022/03/03 00:30:15;;;;;;;16.23;9.38;;;-0.90;1.00;;;;;;5073415;28;20630;-72
2022/03/03 00:32:58;;;;;;;17.05;9.88;;;-1.10;1.00;;;;;;5061475;28;20186;-74
2022/03/03 00:35:40;;;;;;;18.95;9.18;;;-1.00;1.00;;;;;;5057737;28;20252;-74
2022/03/03 00:38:06;;;;;;;18.92;9.77;;;-1.00;1.00;;;;;;5054091;28;20164;-74
2022/03/03 00:40:32;;;;;;;20.00;10.90;;;-1.00;1.00;;;;;;5054388;28;20553;-74
2022/03/03 00:42:58;;;;;;;18.60;10.50;;;-1.00;1.00;;;;;;5054296;28;20326;-74
2022/03/03 00:45:28;;;;;;;16.40;9.73;;;-1.10;1.00;;;;;;5054588;28;20659;-73
2022/03/03 00:47:58;;;;;;;18.38;10.70;;;-1.00;1.00;;;;;;5055749;28;20624;-73
2022/03/03 00:50:24;;;;;;;19.42;11.48;;;-1.10;1.00;;;;;;5059190;28;20729;-74
2022/03/03 00:52:50;;;;;;;18.87;10.40;;;-1.00;1.00;;;;;;5053795;28;20175;-74
2022/03/03 00:55:16;;;;;;;19.00;11.47;;;-1.00;1.00;;;;;;5061690;28;20305;-74
2022/03/03 00:57:42;;;;;;;21.42;11.45;;;-1.00;1.00;;;;;;5054047;28;20202;-74
2022/03/03 01:00:10;;;;;;;27.77;12.07;;;-1.00;1.00;;;;;;5060585;28;20261;-74
2022/03/03 01:02:40;;;;;;;23.50;12.60;;;-0.90;1.00;;;;;;5060993;28;20770;-74
2022/03/03 01:05:06;;;;;;;20.63;11.27;;;-0.80;1.00;;;;;;5053756;28;20657;-74
2022/03/03 01:07:34;;;;;;;31.23;12.38;;;-0.80;1.00;;;;;;5054072;28;20183;-73
2022/03/03 01:10:00;;;;;;;18.20;10.27;;;-0.90;1.00;;;;;;5066646;28;20194;-74
2022/03/03 01:12:28;;;;;;;20.23;11.30;;;-0.80;1.00;;;;;;5065881;28;20242;-73
2022/03/03 01:14:58;;;;;;;18.67;11.02;;;-0.80;1.00;;;;;;5073960;28;20912;-74
2022/03/03 01:17:24;;;;;;;17.30;10.43;;;-0.80;1.00;;;;;;5069380;28;20190;-73
2022/03/03 01:19:52;;;;;;;20.43;11.57;;;-0.80;1.00;;;;;;5054003;28;20168;-74
2022/03/03 01:22:18;;;;;;;21.80;10.68;;;-0.90;1.00;;;;;;5056411;28;20179;-74
2022/03/03 01:24:45;;;;;;;20.10;10.33;;;-1.00;1.00;;;;;;5054316;28;20195;-73
2022/03/03 01:27:40;;;;;;;20.10;10.95;;;-1.00;1.00;;;;;;5053404;28;20410;-73
2022/03/03 01:30:07;;;;;;;18.05;10.30;;;-1.10;1.00;;;;;;5059505;28;20178;-74
2022/03/03 01:32:33;;;;;;;18.92;10.68;;;-1.10;1.00;;;;;;5054054;28;20655;-73
2022/03/03 01:34:59;;;;;;;20.57;11.00;;;-1.10;1.00;;;;;;5055246;28;20203;-73
2022/03/03 01:37:28;;;;;;;22.17;11.90;;;-1.10;1.00;;;;;;5053310;28;20406;-73
2022/03/03 01:39:54;;;;;;;30.05;12.07;;;-1.10;1.00;;;;;;5053452;28;20263;-73
2022/03/03 01:42:19;;;;;;;22.03;11.33;;;-1.10;1.00;;;;;;5073364;28;20191;-73
2022/03/03 01:44:47;;;;;;;19.03;11.27;;;-1.20;1.00;;;;;;5071942;28;20459;-72
2022/03/03 01:47:25;;;;;;;18.52;10.90;;;-1.20;1.00;;;;;;5065862;28;20203;-73
2022/03/03 01:49:53;;;;;;;20.60;11.35;;;-1.20;1.00;;;;;;5052924;28;20163;-73
2022/03/03 01:52:19;;;;;;;21.13;12.13;;;-1.30;1.00;;;;;;5053396;28;20191;-73
2022/03/03 01:54:52;;;;;;;21.23;11.75;;;-1.20;1.00;;;;;;5058026;28;20240;-73
2022/03/03 01:57:19;;;;;;;23.50;11.85;;;-1.30;1.00;;;;;;5062221;28;20188;-73
2022/03/03 01:59:47;;;;;;;21.45;11.73;;;-1.30;1.00;;;;;;5053083;28;20601;-72
2022/03/03 02:02:16;;;;;;;21.08;11.80;;;-1.30;1.00;;;;;;5053431;28;20625;-73
2022/03/03 02:04:42;;;;;;;24.42;12.60;;;-1.30;1.00;;;;;;5053027;28;20278;-73
2022/03/03 02:07:10;;;;;;;25.15;11.50;;;-1.40;1.00;;;;;;5053218;28;20175;-73
2022/03/03 02:09:41;;;;;;;22.48;11.80;;;-1.40;1.00;;;;;;5058338;28;20182;-73
2022/03/03 02:12:07;;;;;;;21.20;11.00;;;-1.50;1.00;;;;;;5058438;28;20630;-73
2022/03/03 02:14:48;;;;;;;23.05;11.55;;;-1.50;1.00;;;;;;5061447;28;20255;-73
2022/03/03 02:17:14;;;;;;;18.83;10.80;;;-1.50;1.00;;;;;;5053505;28;20167;-73
2022/03/03 02:19:40;;;;;;;24.23;11.30;;;-1.60;1.00;;;;;;5052459;28;20771;-73
2022/03/03 02:22:08;;;;;;;24.27;11.55;;;-1.60;1.00;;;;;;5066491;28;20216;-74
2022/03/03 02:24:34;;;;;;;21.92;11.45;;;-1.60;1.00;;;;;;5064501;28;20188;-73
2022/03/03 02:27:01;;;;;;;22.48;12.02;;;-1.60;1.00;;;;;;5054488;28;20510;-74
2022/03/03 02:29:28;;;;;;;23.65;12.80;;;-1.60;1.00;;;;;;5055790;28;20275;-73
2022/03/03 02:31:54;;;;;;;21.17;12.05;;;-1.60;1.00;;;;;;5053491;28;20163;-73
2022/03/03 02:34:20;;;;;;;19.90;12.07;;;-1.70;1.00;;;;;;5052225;28;20514;-74
2022/03/03 02:36:46;;;;;;;25.08;11.55;;;-1.70;1.00;;;;;;5053219;28;20178;-74
2022/03/03 02:39:16;;;;;;;16.73;11.20;;;-1.70;1.00;;;;;;5060684;28;20770;-73
2022/03/03 02:41:42;;;;;;;21.90;11.50;;;-1.70;1.00;;;;;;5057527;28;20694;-74
2022/03/03 02:44:10;;;;;;;19.47;11.53;;;-1.70;1.00;;;;;;5061254;28;20202;-73
2022/03/03 02:46:36;;;;;;;22.42;11.20;;;-1.70;1.00;;;;;;5057082;28;20199;-73
2022/03/03 02:49:09;;;;;;;23.20;11.80;;;-1.80;1.00;;;;;;5051444;28;20213;-73
2022/03/03 02:51:35;;;;;;;19.77;11.18;;;-1.70;1.00;;;;;;5053091;28;20386;-73
2022/03/03 02:54:01;;;;;;;19.25;10.98;;;-1.80;1.00;;;;;;5055987;28;20175;-73
2022/03/03 02:57:53;;;;;;;20.83;11.77;;;-1.80;1.00;;;;;;5059587;28;20237;-73
2022/03/03 02:59:20;;;;;;;19.42;10.52;;;-1.80;1.00;;;;;;5059467;28;20569;-74
2022/03/03 03:01:46;;;;;;;19.10;10.80;;;-1.80;1.00;;;;;;5055441;28;20267;-73
2022/03/03 03:04:16;;;;;;;20.10;11.15;;;-1.90;1.00;;;;;;5056238;28;20441;-73
2022/03/03 03:06:46;;;;;;;19.98;11.55;;;-1.90;1.00;;;;;;5055659;28;20580;-73
2022/03/03 03:09:12;;;;;;;24.15;11.45;;;-1.80;1.00;;;;;;5056345;28;20168;-73
2022/03/03 03:11:38;;;;;;;17.97;10.37;;;-1.80;1.00;;;;;;5067659;28;20298;-73
2022/03/03 03:14:04;;;;;;;23.20;11.10;;;-1.90;1.00;;;;;;5068151;28;20524;-72
2022/03/03 03:16:30;;;;;;;20.00;11.17;;;-1.90;1.00;;;;;;5067226;28;20176;-72
2022/03/03 03:18:58;;;;;;;20.20;10.87;;;-1.90;1.00;;;;;;5055941;28;20489;-74
2022/03/03 03:21:25;;;;;;;19.65;11.90;;;;;;;;;;5054940;28;20483;-74
2022/03/03 03:23:52;;;;;;;23.83;11.80;;;-1.90;1.00;;;;;;5055685;28;20532;-73
2022/03/03 03:26:18;;;;;;;20.02;10.85;;;-1.90;1.00;;;;;;5062282;28;20636;-73
2022/03/03 03:28:46;;;;;;;19.20;11.07;;;-1.90;1.00;;;;;;5055794;28;20176;-74
2022/03/03 03:31:12;;;;;;;20.73;10.90;;;-1.90;1.00;;;;;;5036043;28;20171;-74
2022/03/03 03:33:38;;;;;;;18.40;11.53;;;-1.90;1.00;;;;;;5066259;28;20509;-73
2022/03/03 03:36:04;;;;;;;23.00;11.23;;;-1.90;1.00;;;;;;5055425;28;20236;-72
2022/03/03 03:38:29;;;;;;;22.50;11.97;;;-1.90;1.00;;;;;;5070527;28;20425;-73
2022/03/03 03:40:55;;;;;;;21.73;11.13;;;-1.80;1.00;;;;;;5064736;28;20421;-73
2022/03/03 03:43:21;;;;;;;22.53;11.97;;;-1.90;1.00;;;;;;5072958;28;20526;-72
2022/03/03 03:45:46;;;;;;;20.50;11.27;;;-1.90;1.00;;;;;;5054997;28;20309;-72
2022/03/03 03:48:12;;;;;;;21.93;11.50;;;-1.90;1.00;;;;;;5058898;28;20213;-73
2022/03/03 03:50:46;;;;;;;20.57;11.33;;;-1.90;1.00;;;;;;5056724;28;20231;-73
2022/03/03 03:53:12;;;;;;;21.38;11.63;;;-1.90;1.00;;;;;;5068964;28;20180;-73
2022/03/03 03:55:38;;;;;;;21.80;12.17;;;-2.00;1.00;;;;;;5055413;28;20183;-73
2022/03/03 03:58:04;;;;;;;21.30;11.63;;;-1.90;1.00;;;;;;5058625;28;20210;-73
2022/03/03 04:00:34;;;;;;;22.00;11.00;;;-2.00;1.00;;;;;;5068459;28;20428;-73
2022/03/03 04:03:00;;;;;;;23.45;12.48;;;-2.00;1.00;;;;;;5061878;28;20191;-74
2022/03/03 04:05:29;;;;;;;20.30;11.40;;;-1.90;1.00;;;;;;5064328;28;20179;-73
2022/03/03 04:07:55;;;;;;;22.58;11.50;;;-1.90;1.00;;;;;;5059549;28;20206;-73
2022/03/03 04:10:34;;;;;;;17.52;11.35;;;-1.90;1.00;;;;;;5059790;28;20168;-73
2022/03/03 04:13:00;;;;;;;22.67;11.80;;;-1.90;1.00;;;;;;5055228;28;20174;-73
2022/03/03 04:15:28;;;;;;;21.00;11.53;;;-1.90;1.00;;;;;;5067442;28;20257;-74
2022/03/03 04:17:54;;;;;;;24.40;12.07;;;-1.90;1.00;;;;;;5069380;28;20199;-74
2022/03/03 04:20:22;;;;;;;21.63;12.07;;;-1.90;1.00;;;;;;5053184;28;20199;-73
2022/03/03 04:22:52;;;;;;;22.10;11.57;;;-1.90;1.00;;;;;;5054938;28;20182;-74
2022/03/03 04:25:22;;;;;;;22.13;11.93;;;-1.80;1.00;;;;;;5064264;28;20249;-74
2022/03/03 04:27:48;;;;;;;23.67;12.55;;;-1.70;1.00;;;;;;5054893;28;20164;-73
2022/03/03 04:30:15;;;;;;;21.93;12.07;;;-1.70;1.00;;;;;;5054547;28;20172;-74
2022/03/03 04:32:46;;;;;;;28.88;12.75;;;-1.70;1.00;;;;;;5055154;28;20187;-72
2022/03/03 04:35:12;;;;;;;20.42;11.60;;;-1.70;1.00;;;;;;5061910;28;20202;-73
2022/03/03 04:37:38;;;;;;;25.00;12.90;;;-1.70;1.00;;;;;;5063042;28;20190;-73
2022/03/03 04:40:10;;;;;;;19.88;11.60;;;-1.70;1.00;;;;;;5058089;28;20596;-73
2022/03/03 04:42:40;;;;;;;23.77;12.93;;;-1.70;1.00;;;;;;5063098;28;20228;-73
2022/03/03 04:45:07;;;;;;;19.40;11.90;;;-1.80;1.00;;;;;;5057066;28;20563;-73
2022/03/03 04:47:34;;;;;;;19.75;11.32;;;-1.70;1.00;;;;;;5065217;28;20230;-72
2022/03/03 04:50:00;;;;;;;22.85;11.38;;;-1.80;1.00;;;;;;5056692;28;20172;-72
2022/03/03 04:52:28;;;;;;;21.92;12.00;;;-1.70;1.00;;;;;;5052909;28;20213;-73
2022/03/03 04:54:58;;;;;;;22.45;11.35;;;-1.80;1.00;;;;;;5054203;28;20712;-73
2022/03/03 04:57:24;;;;;;;22.52;11.50;;;-1.80;1.00;;;;;;5059009;28;20262;-73
2022/03/03 04:59:50;;;;;;;20.07;10.73;;;-1.80;1.00;;;;;;5055708;28;20643;-73
2022/03/03 05:02:16;;;;;;;22.93;12.60;;;-1.90;1.00;;;;;;5054207;28;20152;-73
2022/03/03 05:04:42;;;;;;;20.50;12.15;;;-2.00;1.00;;;;;;5054171;28;20191;-73
2022/03/03 05:07:07;;;;;;;18.30;11.07;;;-2.00;1.00;;;;;;5053666;28;20178;-73
2022/03/03 05:09:33;;;;;;;21.30;11.33;;;-2.00;1.00;;;;;;5065014;28;20175;-72
2022/03/03 05:12:04;;;;;;;21.53;12.10;;;-2.10;1.00;;;;;;5064794;28;20210;-73
2022/03/03 05:14:30;;;;;;;22.90;11.65;;;-2.00;1.00;;;;;;5060388;28;20183;-73
2022/03/03 05:16:56;;;;;;;24.53;12.10;;;-2.10;1.00;;;;;;5069322;28;20178;-73
2022/03/03 05:19:22;;;;;;;30.83;12.90;;;-2.10;1.00;;;;;;5055929;28;20513;-73
2022/03/03 05:21:52;;;;;;;25.10;13.00;;;-2.10;1.00;;;;;;5053600;28;20414;-73
2022/03/03 05:24:18;;;;;;;19.65;11.05;;;-2.10;1.00;;;;;;5053564;28;20450;-73
2022/03/03 05:26:46;;;;;;;19.97;11.90;;;-2.10;1.00;;;;;;5053698;28;20184;-73
2022/03/03 05:29:16;;;;;;;22.25;12.45;;;-2.20;1.00;;;;;;5053338;28;20667;-73
2022/03/03 05:31:52;;;;;;;26.25;12.60;;;-2.20;1.00;;;;;;5099348;28;20179;-72
2022/03/03 05:34:23;;;;;;;27.42;11.95;;;-2.20;1.00;;;;;;5062289;28;20234;-73
2022/03/03 05:36:59;;;;;;;22.95;11.98;;;-2.20;1.00;;;;;;5058933;28;20529;-74
2022/03/03 05:39:29;;;;;;;21.13;11.85;;;-2.20;1.00;;;;;;5069698;28;20228;-73
2022/03/03 05:41:55;;;;;;;27.25;11.05;;;-2.20;1.00;;;;;;5054879;28;20625;-73
2022/03/03 05:44:21;;;;;;;26.27;12.00;;;-2.20;1.00;;;;;;5053593;28;20188;-74
2022/03/03 05:46:54;;;;;;;18.08;10.88;;;-2.20;1.00;;;;;;5053432;28;20250;-73
2022/03/03 05:49:23;;;;;;;21.20;10.85;;;-2.30;1.00;;;;;;5053523;28;20179;-73
2022/03/03 05:51:52;;;;;;;24.10;11.05;;;-2.30;1.00;;;;;;5052945;28;20509;-72
2022/03/03 05:54:18;;;;;;;19.02;10.90;;;-2.30;1.00;;;;;;5053383;28;20234;-73
2022/03/03 05:56:51;;;;;;;19.53;11.03;;;-2.30;1.00;;;;;;5059357;28;20761;-72
2022/03/03 05:59:18;;;;;;;20.75;12.10;;;-2.40;1.00;;;;;;5059129;28;20168;-73
2022/03/03 06:01:45;;;;;;;22.33;11.38;;;-2.40;1.00;;;;;;5046782;28;20188;-73
2022/03/03 06:04:15;;;;;;;21.05;11.32;;;-2.30;1.00;;;;;;5051574;28;20231;-74
2022/03/03 06:06:51;;;;;;;26.58;10.98;;;-2.30;1.00;;;;;;5065496;28;20172;-74
2022/03/03 06:09:27;;;;;;;22.08;11.90;;;-2.30;1.00;;;;;;5043279;28;20565;-73
2022/03/03 06:12:18;;;;;;;20.15;10.55;;;-2.30;1.00;;;;;;5052247;28;20171;-83
2022/03/03 06:14:54;;;;;;;22.35;11.88;;;-2.30;1.00;;;;;;5040946;28;20653;-73
2022/03/03 06:17:30;;;;;;;19.23;10.63;;;-2.20;1.00;;;;;;5052909;28;20167;-73
2022/03/03 06:20:02;;;;;;;18.25;10.73;;;-2.30;1.00;;;;;;5053185;28;20195;-73
2022/03/03 06:22:28;;;;;;;21.30;12.05;;;-2.10;1.00;;;;;;5051066;28;20187;-73
2022/03/03 06:24:54;;;;;;;18.75;10.43;;;-2.10;1.00;;;;;;5052956;28;20199;-73
2022/03/03 06:27:30;;;;;;;20.30;10.97;;;-2.00;1.00;;;;;;5066680;28;20186;-74
2022/03/03 06:29:59;;;;;;;18.95;10.93;;;-2.00;1.00;;;;;;5054300;28;20492;-73
2022/03/03 06:32:28;;;;;;;17.33;11.07;;;-2.00;1.00;;;;;;5054500;28;20171;-73
2022/03/03 06:34:54;;;;;;;23.55;11.50;;;-1.80;1.00;;;;;;5059208;28;20221;-73
2022/03/03 06:37:20;;;;;;;21.83;11.20;;;-1.70;1.00;;;;;;5056341;28;20211;-74
2022/03/03 06:39:46;;;;;;;20.33;11.20;;;;;;;;;;5055914;28;20237;-74
2022/03/03 06:42:11;;;;;;;20.02;10.80;;;-1.60;1.00;;;;;;5056610;28;20167;-73
2022/03/03 06:44:37;;;;;;;17.83;10.80;;;-1.40;1.00;;;;;;5046927;28;20596;-73
2022/03/03 06:47:10;;;;;;;20.20;10.77;;;-1.30;1.00;;;;;;5058740;28;20183;-74
2022/03/03 06:49:36;;;;;;;20.40;10.45;;;-1.30;1.00;;;;;;5056577;28;20180;-76
2022/03/03 06:52:06;;;;;;;18.23;10.05;;;-1.20;1.00;;;;;;5056196;28;20550;-74
2022/03/03 06:54:43;;;;;;;19.05;9.95;;;-1.00;1.00;;;;;;5056026;28;20180;-73
2022/03/03 06:57:11;;;;;;;21.15;11.98;;;-0.90;1.00;;;;;;5055534;28;20195;-74
2022/03/03 07:00:00;;;;;;;20.92;11.65;;;-0.70;1.00;;;;;;5069320;28;20187;-74
2022/03/03 07:02:28;;;;;;;19.88;11.05;;;-0.60;1.00;;;;;;5051359;28;20693;-74
2022/03/03 07:05:01;;;;;;;17.20;10.38;;;-0.50;1.00;;;;;;5055970;28;20648;-73
2022/03/03 07:07:27;;;;;;;19.00;10.65;;;-0.30;1.00;;;;;;5067618;28;20224;-73
2022/03/03 07:09:54;;;;;;;18.70;11.05;;;-0.10;1.00;;;;;;5055687;28;20612;-73
2022/03/03 07:12:20;;;;;;;18.88;11.35;;;0.00;1.00;;;;;;5058483;28;20633;-73
2022/03/03 07:14:47;;;;;;;18.88;10.85;;;0.20;1.00;;;;;;5070617;28;20671;-73
2022/03/03 07:17:32;;;;;;;19.27;10.68;;;0.30;1.00;;;;;;5055975;28;20306;-73
2022/03/03 07:20:06;;;;;;;24.95;11.20;;;0.30;1.00;;;;;;5046872;28;20176;-74
2022/03/03 07:22:43;;;;;;;23.50;10.38;;;0.50;1.00;;;;;;5091593;28;20209;-74
2022/03/03 07:25:14;;;;;;;17.65;10.82;;;0.60;1.00;;;;;;5049865;28;20217;-74
2022/03/03 07:27:43;;;;;;;21.80;11.93;;;0.70;1.00;;;;;;5068830;28;20238;-73
2022/03/03 07:30:17;;;;;;;19.02;11.30;;;0.70;1.00;;;;;;5055973;28;20183;-74
2022/03/03 07:33:02;;;;;;;20.33;11.55;;;0.70;1.00;;;;;;5063395;28;20209;-74
2022/03/03 07:35:30;;;;;;;23.77;11.65;;;0.90;1.00;;;;;;5059363;28;20183;-73
2022/03/03 07:38:02;;;;;;;22.00;11.07;;;1.00;1.00;;;;;;5054754;28;20168;-73
2022/03/03 07:40:31;;;;;;;18.88;11.35;;;0.90;1.00;;;;;;5068918;28;20180;-75
2022/03/03 07:42:57;;;;;;;19.27;10.85;;;1.10;1.00;;;;;;5061127;28;20558;-73
2022/03/03 07:45:29;;;;;;;20.50;10.82;;;1.20;1.00;;;;;;5063180;28;20184;-74
2022/03/03 07:47:59;;;;;;;23.70;11.25;;;1.30;1.00;;;;;;5055816;28;20761;-75
2022/03/03 07:50:25;;;;;;;20.98;10.80;;;1.40;1.00;;;;;;5068823;28;20187;-74
2022/03/03 07:52:53;;;;;;;17.20;10.38;;;1.50;1.00;;;;;;5053956;28;20159;-75
2022/03/03 07:55:20;;;;;;;16.40;10.80;;;1.60;1.00;;;;;;5055658;28;20191;-73
2022/03/03 07:58:00;;;;;;;21.38;11.38;;;1.60;1.00;;;;;;5057987;28;20532;-73
2022/03/03 08:00:29;;;;;;;21.05;11.52;;;1.70;1.00;;;;;;5054626;28;20662;-74
2022/03/03 08:03:00;;;;;;;19.42;11.15;;;1.70;1.00;;;;;;5054900;28;20175;-74
2022/03/03 08:05:31;;;;;;;18.17;10.32;;;1.90;1.00;;;;;;5055344;28;20633;-73
2022/03/03 08:08:02;;;;;;;25.40;10.65;;;1.90;1.00;;;;;;5058444;28;20225;-74
2022/03/03 08:10:29;;;;;;;21.88;10.57;;;2.00;1.00;;;;;;5062850;28;20636;-73
2022/03/03 08:12:57;;;;;;;24.23;10.50;;;2.10;1.00;;;;;;5059516;28;20202;-73
2022/03/03 08:15:38;;;;;;;15.82;9.70;;;2.20;1.00;;;;;;5072494;28;20171;-73
2022/03/03 08:18:04;;;;;;;17.13;9.98;;;2.10;1.00;;;;;;5047042;28;20171;-73
2022/03/03 08:20:38;;;;;;;21.45;10.35;;;2.30;1.00;;;;;;5054921;28;20164;-74
2022/03/03 08:23:06;;;;;;;18.15;9.80;;;2.30;1.00;;;;;;5063271;28;20214;-74
2022/03/03 08:25:59;;;;;;;16.80;9.98;;;2.50;1.00;;;;;;5038671;28;20281;-74
2022/03/03 08:28:25;;;;;;;19.58;9.20;;;;;;;;;;5060930;28;20195;-74
2022/03/03 08:31:03;;;;;;;14.63;8.55;;;2.70;1.00;;;;;;5053699;28;20171;-74
2022/03/03 08:33:44;;;;;;;19.98;8.57;;;2.70;1.00;;;;;;5055299;28;20184;-74
2022/03/03 08:36:18;;;;;;;23.98;9.45;;;2.80;1.00;;;;;;5050875;28;20179;-73
2022/03/03 08:38:51;;;;;;;16.35;9.30;;;2.80;1.00;;;;;;5053575;28;20241;-74
2022/03/03 08:41:21;;;;;;;16.85;9.32;;;2.90;1.00;;;;;;5053527;28;20171;-73
2022/03/03 08:43:51;;;;;;;21.67;8.18;;;3.00;1.00;;;;;;5053794;28;20223;-74
2022/03/03 08:46:22;;;;;;;14.85;8.70;;;3.10;1.00;;;;;;5034483;28;20176;-74
2022/03/03 08:48:56;;;;;;;13.35;8.70;;;3.20;1.00;;;;;;5052739;28;20188;-73
2022/03/03 08:51:22;;;;;;;16.00;9.65;;;3.20;1.00;;;;;;5053763;28;20163;-74
2022/03/03 08:54:11;;;;;;;17.00;9.20;;;3.30;1.00;;;;;;5054518;28;20186;-74
2022/03/03 08:56:38;;;;;;;22.25;8.55;;;3.40;1.00;;;;;;5043887;28;20203;-74
2022/03/03 08:59:04;;;;;;;17.97;7.77;;;3.60;1.00;;;;;;5048082;28;20253;-75
2022/03/03 09:01:30;;;;;;;14.45;6.97;;;3.60;1.00;;;;;;5053675;28;20195;-75
2022/03/03 09:03:59;;;;;;;15.20;6.63;;;3.80;1.00;;;;;;5063193;28;20242;-74
2022/03/03 09:06:34;;;;;;;15.63;7.35;;;3.90;1.00;;;;;;5051536;28;20172;-75
2022/03/03 09:09:04;;;;;;;12.52;7.10;;;4.00;1.00;;;;;;5054086;28;20211;-74
2022/03/03 09:11:41;;;;;;;16.77;7.80;;;4.00;1.00;;;;;;5043163;28;20165;-75
2022/03/03 09:14:07;;;;;;;13.23;6.70;;;4.00;1.00;;;;;;5067395;28;20705;-74
2022/03/03 09:16:35;;;;;;;14.65;7.45;;;4.20;1.00;;;;;;5054258;28;20164;-74
2022/03/03 09:19:01;;;;;;;14.43;7.63;;;4.20;1.00;;;;;;5066079;28;20178;-74
2022/03/03 09:21:29;;;;;;;20.33;8.30;;;4.40;1.00;;;;;;5053794;28;20628;-73
2022/03/03 09:23:55;;;;;;;13.27;6.55;;;4.40;1.00;;;;;;5066394;28;20205;-73
2022/03/03 09:26:28;;;;;;;17.75;7.38;;;4.60;1.00;;;;;;5054165;28;20270;-73
2022/03/03 09:28:54;;;;;;;13.85;7.00;;;4.80;1.00;;;;;;5050846;28;20189;-73
2022/03/03 09:31:20;;;;;;;17.73;7.77;;;4.80;1.00;;;;;;5054932;28;20601;-73
2022/03/03 09:33:45;;;;;;;17.30;8.57;;;4.80;1.00;;;;;;5052871;28;20664;-73
2022/03/03 09:36:18;;;;;;;17.33;7.50;;;4.80;1.00;;;;;;5060094;28;20262;-75
2022/03/03 09:38:44;;;;;;;18.47;8.50;;;4.90;1.00;;;;;;5058598;28;20176;-75
2022/03/03 09:41:11;;;;;;;14.73;8.00;;;5.00;1.00;;;;;;5053567;28;20922;-74
2022/03/03 09:43:37;;;;;;;15.83;7.60;;;;;;;;;;5066588;28;20488;-75
2022/03/03 09:46:03;;;;;;;14.70;7.60;;;5.20;1.00;;;;;;5047316;28;20449;-75
2022/03/03 09:48:28;;;;;;;13.33;6.60;;;5.20;1.00;;;;;;5053880;28;20820;-74
2022/03/03 09:50:58;;;;;;;17.93;8.73;;;5.40;1.00;;;;;;5053591;28;20175;-73
2022/03/03 09:53:29;;;;;;;30.50;7.20;;;5.60;1.00;;;;;;5065746;28;20934;-73
2022/03/03 09:55:55;;;;;;;20.70;7.83;;;5.60;1.00;;;;;;5061675;28;20468;-73
2022/03/03 09:58:21;;;;;;;19.03;8.20;;;5.70;1.00;;;;;;5057074;28;20442;-73
2022/03/03 10:00:52;;;;;;;10.90;6.57;;;5.80;1.00;;;;;;5063668;28;20431;-73
2022/03/03 10:03:33;;;;;;;23.63;8.50;;;6.00;1.00;;;;;;5061883;28;20541;-73
2022/03/03 10:06:00;;;;;;;17.13;8.00;;;6.10;1.00;;;;;;5056691;28;20426;-74
2022/03/03 10:08:27;;;;;;;17.80;7.80;;;6.10;1.00;;;;;;5068178;28;20429;-75
2022/03/03 10:11:04;;;;;;;18.90;8.23;;;6.30;1.00;;;;;;5057491;28;20484;-74
2022/03/03 10:13:52;;;;;;;14.90;7.80;;;6.30;99.90;;;;;;5054286;28;20470;-75
2022/03/03 10:16:29;;;;;;;14.17;7.57;;;6.50;99.90;;;;;;5059988;28;20499;-75
2022/03/03 10:19:05;;;;;;;21.10;8.70;;;6.50;99.90;;;;;;5055909;28;20418;-75
2022/03/03 10:21:33;;;;;;;17.37;8.20;;;6.70;99.90;;;;;;5057094;28;20453;-74
2022/03/03 10:24:21;;;;;;;15.70;7.70;;;6.70;99.90;;;;;;5057387;28;20453;-75
2022/03/03 10:27:07;;;;;;;14.50;7.77;;;6.70;99.90;;;;;;5054559;28;20442;-75
2022/03/03 10:29:34;;;;;;;15.67;7.70;;;6.70;99.90;;;;;;5058231;28;20412;-75
2022/03/03 10:32:05;;;;;;;24.47;8.57;;;6.70;99.90;;;;;;5066450;28;20402;-75
2022/03/03 10:34:33;;;;;;;19.37;9.40;;;6.80;99.90;;;;;;5065054;28;20438;-75
2022/03/03 10:37:08;;;;;;;15.37;8.77;;;6.80;99.90;;;;;;5058991;28;20430;-75
2022/03/03 10:39:43;;;;;;;17.90;8.30;;;7.00;99.90;;;;;;5056843;28;20421;-75
2022/03/03 10:42:19;;;;;;;19.63;8.40;;;7.30;99.90;;;;;;5057975;28;20928;-75
2022/03/03 10:45:16;;;;;;;15.93;7.70;;;7.30;99.90;;;;;;5058669;28;20454;-75
2022/03/03 10:48:03;;;;;;;12.53;7.70;;;7.30;99.90;;;;;;5056919;28;20432;-75
2022/03/03 10:50:49;;;;;;;15.80;7.80;;;7.40;99.90;;;;;;5056516;28;20410;-75
2022/03/03 10:53:23;;;;;;;19.50;8.13;;;7.70;99.90;;;;;;5070008;28;20439;-75
2022/03/03 10:56:06;;;;;;;17.27;8.97;;;7.80;99.90;;;;;;5036854;28;20398;-74
2022/03/03 10:58:55;;;;;;;13.83;8.10;;;7.90;99.90;;;;;;5069484;28;20441;-75
2022/03/03 11:01:29;;;;;;;13.97;8.30;;;8.00;99.90;;;;;;5060212;28;21004;-75
2022/03/03 11:03:55;;;;;;;18.93;8.20;;;8.10;99.90;;;;;;5065476;28;20449;-75
2022/03/03 11:06:26;;;;;;;23.37;8.63;;;8.00;99.90;;;;;;5070131;28;20417;-73
2022/03/03 11:08:54;;;;;;;20.03;8.67;;;8.10;99.90;;;;;;5054779;28;20430;-73
2022/03/03 11:11:21;;;;;;;20.57;8.20;;;8.30;99.90;;;;;;5052994;28;20418;-73
2022/03/03 11:13:49;;;;;;;17.47;8.80;;;8.30;99.90;;;;;;5086895;28;20426;-73
2022/03/03 11:16:17;;;;;;;13.73;8.30;;;8.40;99.90;;;;;;5058209;28;20766;-73
2022/03/03 11:18:47;;;;;;;15.97;9.30;;;8.70;99.90;;;;;;5050063;28;20411;-73
2022/03/03 11:21:17;;;;;;;18.03;9.13;;;8.80;99.90;;;;;;5055454;28;20406;-73
2022/03/03 11:23:51;;;;;;;20.03;9.20;;;8.90;99.90;;;;;;5056026;28;20500;-76
2022/03/03 11:26:40;;;;;;;14.80;8.30;;;8.80;99.90;;;;;;5067705;28;20409;-75
2022/03/03 11:29:12;;;;;;;16.13;9.03;;;8.90;99.90;;;;;;5053793;28;20408;-75
2022/03/03 11:32:17;;;;;;;15.10;7.27;;;8.90;99.90;;;;;;5060399;28;20774;-75
2022/03/03 11:35:08;;;;;;;18.37;9.23;;;9.10;99.90;;;;;;5055604;28;20504;-76
2022/03/03 11:37:40;;;;;;;15.57;8.30;;;9.10;99.90;;;;;;5066024;28;20405;-77
2022/03/03 11:40:06;;;;;;;14.30;8.03;;;9.20;99.90;;;;;;5054188;28;20425;-72
2022/03/03 11:43:10;;;;;;;16.20;8.00;;;9.20;99.90;;;;;;5053310;28;20476;-73
2022/03/03 11:45:55;;;;;;;12.10;7.97;;;9.30;99.90;;;;;;5062592;28;20413;-73
2022/03/03 11:48:23;;;;;;;14.73;8.20;;;9.30;99.90;;;;;;5051134;28;20511;-73
2022/03/03 11:50:53;;;;;;;11.70;6.70;;;9.30;99.90;;;;;;5060348;28;20410;-73
2022/03/03 11:53:22;;;;;;;10.83;7.13;;;9.40;99.90;;;;;;5055058;28;20902;-73
2022/03/03 11:55:58;;;;;;;15.20;8.00;;;9.40;99.90;;;;;;5060906;28;20420;-74
2022/03/03 11:58:38;;;;;;;13.03;6.80;;;9.30;99.90;;;;;;5061642;28;20433;-74
2022/03/03 12:01:48;;;;;;;12.20;6.57;;;9.50;99.90;;;;;;5068973;28;20418;-86
2022/03/03 12:04:46;;;;;;;12.97;7.50;;;9.50;99.90;;;;;;5080167;28;20540;-85
2022/03/03 12:11:11;;;;;;;15.37;7.60;;;9.80;99.90;;;;;;5067409;28;20447;-85
2022/03/03 12:13:57;;;;;;;15.03;5.67;;;9.90;99.90;;;;;;5062406;28;20894;-85
2022/03/03 12:17:17;;;;;;;11.03;5.93;;;9.90;99.90;;;;;;5075601;28;20396;-85
2022/03/03 12:20:35;;;;;;;12.40;7.00;;;10.00;99.90;;;;;;5047950;28;20528;-85
2022/03/03 12:30:10;;;;;;;17.40;7.20;;;10.40;99.90;;;;;;5058096;28;20450;-86
2022/03/03 12:32:42;;;;;;;9.70;6.13;;;10.20;99.90;;;;;;5055268;28;20402;-85
2022/03/03 12:41:57;;;;;;;12.40;6.67;;;10.50;99.90;;;;;;5048553;28;20491;-84
2022/03/03 12:44:41;;;;;;;11.30;6.70;;;10.50;99.90;;;;;;5058928;28;20449;-83
2022/03/03 12:47:48;;;;;;;11.20;6.57;;;10.40;99.90;;;;;;5053514;28;20909;-84
2022/03/03 12:50:26;;;;;;;9.70;6.63;;;10.50;99.90;;;;;;4985194;28;20432;-85
2022/03/03 12:56:26;;;;;;;11.07;6.33;;;10.50;99.90;;;;;;4961487;28;20465;-85
2022/03/03 12:58:53;;;;;;;11.97;6.37;;;10.50;99.90;;;;;;4970874;28;20445;-85
2022/03/03 13:01:23;;;;;;;14.03;6.83;;;10.70;99.90;;;;;;4980637;28;20412;-78
2022/03/03 13:03:53;;;;;;;12.40;7.13;;;10.70;99.90;;;;;;4984883;28;20466;-78
2022/03/03 13:06:25;;;;;;;12.47;7.13;;;10.90;99.90;;;;;;4982785;28;20512;-74
2022/03/03 13:09:04;;;;;;;12.03;7.20;;;11.00;99.90;;;;;;4977677;28;20381;-73
2022/03/03 13:11:35;;;;;;;12.10;6.70;;;11.10;99.90;;;;;;4972458;28;20445;-76
2022/03/03 13:14:06;;;;;;;12.80;7.37;;;11.20;99.90;;;;;;4984206;28;20435;-71
2022/03/03 13:16:52;;;;;;;13.63;7.57;;;11.50;99.90;;;;;;4968165;28;21005;-74
2022/03/03 13:19:18;;;;;;;13.70;7.70;;;11.50;99.90;;;;;;4969733;28;20407;-75
2022/03/03 13:21:52;;;;;;;18.20;7.50;;;11.50;99.90;;;;;;4983404;28;20387;-76
2022/03/03 13:24:24;;;;;;;13.50;7.70;;;11.60;99.90;;;;;;5018231;28;20206;-72